createdAt,value
2019-05-01T00:00:58.728Z,74.51
2019-05-01T00:05:05.031Z,74.78
2019-05-01T00:09:10.836Z,74.89
2019-05-01T00:13:13.242Z,74.79
2019-05-01T00:17:15.363Z,74.96
2019-05-01T00:21:17.434Z,75.21
2019-05-01T00:25:19.332Z,75.21
2019-05-01T00:29:21.246Z,75.40
2019-05-01T00:33:23.129Z,75.56
2019-05-01T00:37:25.076Z,75.60
2019-05-01T00:41:26.957Z,75.83
2019-05-01T00:45:28.853Z,76.01
2019-05-01T00:49:31.785Z,76.00
2019-05-01T00:53:33.659Z,76.03
2019-05-01T00:57:38.161Z,76.16
2019-05-01T01:01:48.908Z,76.30
2019-05-01T01:05:50.809Z,76.50
2019-05-01T01:09:52.713Z,76.74
2019-05-01T01:13:54.608Z,76.83
2019-05-01T01:17:59.378Z,77.04
2019-05-01T01:22:01.337Z,77.01
2019-05-01T01:26:03.238Z,77.40
2019-05-01T01:30:08.632Z,77.42
2019-05-01T01:34:10.548Z,77.27
2019-05-01T01:38:13.741Z,77.20
2019-05-01T01:42:16.249Z,77.62
2019-05-01T01:46:18.159Z,77.61
2019-05-01T01:50:20.130Z,78.09
2019-05-01T01:54:22.146Z,77.94
2019-05-01T01:58:25.549Z,77.88
2019-05-01T02:02:38.129Z,77.78
2019-05-01T02:06:40.010Z,77.67
2019-05-01T02:10:43.202Z,77.72
2019-05-01T02:14:46.341Z,77.76
2019-05-01T02:18:48.240Z,77.93
2019-05-01T02:22:50.906Z,79.01
2019-05-01T02:26:55.995Z,78.96
2019-05-01T02:31:27.316Z,78.92
2019-05-01T02:35:20.496Z,78.96
2019-05-01T02:39:23.607Z,79.42
2019-05-01T02:43:30.061Z,79.48
2019-05-01T02:47:36.265Z,79.69
2019-05-01T02:51:42.480Z,79.76
2019-05-01T02:56:03.079Z,79.70
2019-05-01T03:00:07.163Z,79.71
2019-05-01T03:04:11.274Z,80.01
2019-05-01T03:08:13.336Z,79.96
2019-05-01T03:12:17.350Z,80.17
2019-05-01T03:16:21.163Z,80.33
2019-05-01T03:20:43.121Z,80.56
2019-05-01T03:24:45.092Z,80.76
2019-05-01T03:28:47.634Z,80.55
2019-05-01T03:32:49.596Z,80.35
2019-05-01T03:37:04.859Z,80.52
2019-05-01T03:41:07.297Z,80.71
2019-05-01T03:45:09.433Z,81.08
2019-05-01T03:49:11.879Z,80.96
2019-05-01T03:53:14.483Z,81.10
2019-05-01T03:57:16.819Z,81.63
2019-05-01T04:01:25.101Z,81.54
2019-05-01T04:05:27.346Z,81.40
2019-05-01T04:09:29.371Z,81.81
2019-05-01T04:13:32.609Z,81.83
2019-05-01T04:17:36.783Z,81.97
2019-05-01T04:21:40.581Z,81.74
2019-05-01T04:25:43.387Z,81.92
2019-05-01T04:29:47.087Z,81.99
2019-05-01T04:33:53.319Z,82.50
2019-05-01T04:37:58.952Z,82.81
2019-05-01T04:42:01.367Z,82.81
2019-05-01T04:46:03.751Z,83.27
2019-05-01T04:50:07.647Z,83.36
2019-05-01T04:54:09.880Z,83.41
2019-05-01T04:58:11.833Z,82.69
2019-05-01T05:02:15.440Z,83.37
2019-05-01T05:06:18.467Z,83.16
2019-05-01T05:10:20.764Z,83.11
2019-05-01T05:14:24.911Z,83.09
2019-05-01T05:18:27.341Z,83.30
2019-05-01T05:22:30.481Z,82.86
2019-05-01T05:26:33.127Z,83.04
2019-05-01T05:30:36.724Z,83.87
2019-05-01T05:34:41.396Z,83.87
2019-05-01T05:38:50.306Z,83.90
2019-05-01T05:42:52.626Z,83.05
2019-05-01T05:46:54.850Z,83.19
2019-05-01T05:51:14.412Z,82.83
2019-05-01T05:55:34.008Z,81.76
2019-05-01T05:59:41.981Z,81.87
2019-05-01T06:03:47.066Z,82.77
2019-05-01T06:08:13.477Z,81.95
2019-05-01T06:12:18.439Z,82.44
2019-05-01T06:16:32.950Z,82.71
2019-05-01T06:20:37.646Z,82.99
2019-05-01T06:24:56.627Z,80.74
2019-05-01T06:29:00.671Z,79.88
2019-05-01T06:33:04.178Z,79.51
2019-05-01T06:37:07.685Z,79.31
2019-05-01T06:41:09.930Z,79.36
2019-05-01T06:45:16.797Z,80.48
2019-05-01T06:49:37.420Z,80.11
2019-05-01T06:53:40.217Z,77.24
2019-05-01T06:57:45.493Z,76.39
2019-05-01T07:01:48.545Z,75.63
2019-05-01T07:05:54.256Z,76.09
2019-05-01T07:09:58.023Z,76.37
2019-05-01T07:14:01.448Z,75.52
2019-05-01T07:18:05.143Z,74.02
2019-05-01T07:22:07.473Z,74.97
2019-05-01T07:26:13.670Z,73.72
2019-05-01T07:30:28.591Z,72.67
2019-05-01T07:34:30.574Z,72.18
2019-05-01T07:38:38.288Z,70.63
2019-05-01T07:42:43.678Z,69.44
2019-05-01T07:46:48.800Z,68.21
2019-05-01T07:50:50.113Z,68.62
2019-05-01T07:54:53.735Z,66.82
2019-05-01T07:58:55.838Z,66.44
2019-05-01T08:02:57.917Z,66.56
2019-05-01T08:06:59.838Z,65.26
2019-05-01T08:11:05.346Z,63.57
2019-05-01T08:15:07.302Z,62.38
2019-05-01T08:19:10.864Z,62.35
2019-05-01T08:23:13.727Z,60.91
2019-05-01T08:27:20.234Z,61.20
2019-05-01T08:31:27.887Z,59.95
2019-05-01T08:35:31.734Z,59.86
2019-05-01T08:39:33.513Z,57.93
2019-05-01T08:43:36.485Z,57.51
2019-05-01T08:47:40.131Z,57.73
2019-05-01T08:51:42.043Z,57.50
2019-05-01T08:55:45.178Z,56.80
2019-05-01T08:59:47.595Z,56.36
2019-05-01T09:03:53.711Z,55.51
2019-05-01T09:07:56.116Z,55.24
2019-05-01T09:11:56.761Z,53.96
2019-05-01T09:15:58.708Z,54.57
2019-05-01T09:20:00.701Z,51.53
2019-05-01T09:24:02.761Z,53.38
2019-05-01T09:28:12.905Z,52.80
2019-05-01T09:32:14.876Z,52.17
2019-05-01T09:36:16.874Z,53.18
2019-05-01T09:40:19.374Z,49.49
2019-05-01T09:44:21.303Z,50.09
2019-05-01T09:48:23.684Z,50.89
2019-05-01T09:52:43.421Z,50.24
2019-05-01T09:56:45.412Z,51.75
2019-05-01T10:00:48.806Z,52.21
2019-05-01T10:04:51.258Z,53.18
2019-05-01T10:08:53.479Z,52.65
2019-05-01T10:13:08.229Z,53.71
2019-05-01T10:17:13.488Z,54.16
2019-05-01T10:21:14.871Z,54.36
2019-05-01T10:25:16.784Z,55.55
2019-05-01T10:29:25.752Z,54.81
2019-05-01T10:33:29.065Z,54.29
2019-05-01T10:37:33.851Z,55.79
2019-05-01T10:41:34.352Z,54.99
2019-05-01T10:45:36.266Z,53.79
2019-05-01T10:49:39.178Z,53.96
2019-05-01T10:53:43.222Z,53.35
2019-05-01T10:57:44.784Z,52.67
2019-05-01T11:01:51.099Z,51.46
2019-05-01T11:05:56.197Z,49.93
2019-05-01T11:09:56.869Z,50.00
2019-05-01T11:13:58.780Z,48.75
2019-05-01T11:18:00.721Z,47.39
2019-05-01T11:22:02.644Z,46.04
2019-05-01T11:26:04.608Z,46.96
2019-05-01T11:30:08.783Z,46.00
2019-05-01T11:34:18.231Z,46.00
2019-05-01T11:38:28.659Z,44.90
2019-05-01T11:42:30.584Z,45.67
2019-05-01T11:46:32.519Z,44.32
2019-05-01T11:50:34.458Z,43.77
2019-05-01T11:54:36.387Z,44.22
2019-05-01T11:58:38.302Z,44.47
2019-05-01T12:02:40.293Z,43.06
2019-05-01T12:06:42.221Z,43.44
2019-05-01T12:10:46.465Z,41.64
2019-05-01T12:14:48.407Z,41.12
2019-05-01T12:18:50.356Z,39.93
2019-05-01T12:22:52.270Z,40.58
2019-05-01T12:26:54.214Z,39.45
2019-05-01T12:30:56.205Z,41.75
2019-05-01T12:34:58.184Z,43.13
2019-05-01T12:39:00.174Z,42.80
2019-05-01T12:43:03.305Z,42.28
2019-05-01T12:47:23.188Z,43.01
2019-05-01T12:51:25.499Z,43.70
2019-05-01T12:55:45.624Z,41.81
2019-05-01T12:59:47.548Z,42.01
2019-05-01T13:03:50.545Z,40.68
2019-05-01T13:07:53.398Z,41.44
2019-05-01T13:11:55.570Z,41.57
2019-05-01T13:15:58.760Z,39.85
2019-05-01T13:20:00.670Z,41.06
2019-05-01T13:24:02.597Z,41.27
2019-05-01T13:28:22.425Z,39.67
2019-05-01T13:32:28.674Z,37.89
2019-05-01T13:36:30.570Z,38.65
2019-05-01T13:40:32.783Z,37.62
2019-05-01T13:44:34.695Z,38.31
2019-05-01T13:48:36.623Z,36.70
2019-05-01T13:52:38.553Z,36.90
2019-05-01T13:56:40.538Z,37.70
2019-05-01T14:00:42.520Z,34.93
2019-05-01T14:04:44.488Z,34.12
2019-05-01T14:08:46.416Z,35.17
2019-05-01T14:12:48.326Z,35.75
2019-05-01T14:16:50.253Z,38.70
2019-05-01T14:20:51.932Z,36.27
2019-05-01T14:25:13.786Z,37.42
2019-05-01T14:29:15.704Z,38.09
2019-05-01T14:33:17.626Z,37.81
2019-05-01T14:37:29.479Z,37.48
2019-05-01T14:41:23.445Z,36.36
2019-05-01T14:45:25.426Z,36.08
2019-05-01T14:49:27.338Z,36.46
2019-05-01T14:53:29.248Z,38.05
2019-05-01T14:57:31.152Z,37.73
2019-05-01T15:01:33.539Z,38.01
2019-05-01T15:05:35.991Z,37.86
2019-05-01T15:09:37.910Z,37.45
2019-05-01T15:13:57.274Z,38.11
2019-05-01T15:18:16.917Z,38.27
2019-05-01T15:22:19.173Z,39.24
2019-05-01T15:26:21.144Z,39.68
2019-05-01T15:30:23.373Z,39.74
2019-05-01T15:34:25.280Z,39.88
2019-05-01T15:38:27.480Z,39.69
2019-05-01T15:42:34.017Z,39.86
2019-05-01T15:46:37.583Z,40.85
2019-05-01T15:50:42.298Z,40.24
2019-05-01T15:54:43.121Z,40.00
2019-05-01T15:58:45.050Z,38.25
2019-05-01T16:02:46.956Z,37.20
2019-05-01T16:06:48.879Z,37.13
2019-05-01T16:11:08.474Z,37.79
2019-05-01T16:15:13.451Z,38.40
2019-05-01T16:19:15.417Z,38.82
2019-05-01T16:23:17.357Z,39.11
2019-05-01T16:27:19.273Z,38.46
2019-05-01T16:31:21.196Z,37.98
2019-05-01T16:35:23.119Z,39.52
2019-05-01T16:39:27.638Z,40.71
2019-05-01T16:43:29.573Z,41.85
2019-05-01T16:47:32.615Z,42.28
2019-05-01T16:51:37.294Z,42.92
2019-05-01T16:55:39.721Z,44.61
2019-05-01T16:59:41.641Z,44.67
2019-05-01T17:03:54.329Z,45.39
2019-05-01T17:07:56.026Z,45.71
2019-05-01T17:11:58.383Z,45.68
2019-05-01T17:16:00.319Z,46.47
2019-05-01T17:20:02.216Z,47.00
2019-05-01T17:24:04.311Z,47.96
2019-05-01T17:28:08.304Z,47.52
2019-05-01T17:32:11.656Z,49.78
2019-05-01T17:36:13.578Z,50.09
2019-05-01T17:40:15.902Z,51.08
2019-05-01T17:44:20.240Z,53.47
2019-05-01T17:48:21.495Z,53.99
2019-05-01T17:52:23.464Z,54.12
2019-05-01T17:56:28.564Z,54.89
2019-05-01T18:00:34.621Z,55.17
2019-05-01T18:04:50.089Z,55.08
2019-05-01T18:09:02.460Z,55.56
2019-05-01T18:12:55.614Z,55.89
2019-05-01T18:16:57.596Z,57.13
2019-05-01T18:20:59.655Z,56.91
2019-05-01T18:25:01.819Z,56.84
2019-05-01T18:29:12.073Z,57.04
2019-05-01T18:33:13.985Z,56.79
2019-05-01T18:37:35.124Z,58.25
2019-05-01T18:41:37.742Z,58.59
2019-05-01T18:45:52.749Z,59.24
2019-05-01T18:49:54.747Z,59.83
2019-05-01T18:53:57.778Z,59.94
2019-05-01T18:58:00.774Z,60.37
2019-05-01T19:02:02.928Z,60.70
2019-05-01T19:06:04.986Z,61.26
2019-05-01T19:10:07.601Z,61.62
2019-05-01T19:14:09.757Z,62.11
2019-05-01T19:18:11.786Z,62.67
2019-05-01T19:22:14.336Z,63.12
2019-05-01T19:26:17.283Z,63.68
2019-05-01T19:30:19.787Z,64.26
2019-05-01T19:34:21.706Z,64.60
2019-05-01T19:38:24.259Z,64.97
2019-05-01T19:42:26.162Z,65.38
2019-05-01T19:46:28.091Z,65.55
2019-05-01T19:50:30.340Z,66.08
2019-05-01T19:54:32.900Z,66.32
2019-05-01T19:58:34.819Z,66.47
2019-05-01T20:02:36.753Z,66.82
2019-05-01T20:06:40.204Z,67.39
2019-05-01T20:10:43.107Z,68.08
2019-05-01T20:14:45.030Z,68.21
2019-05-01T20:18:47.028Z,68.69
2019-05-01T20:22:52.987Z,68.75
2019-05-01T20:26:53.827Z,69.06
2019-05-01T20:30:56.807Z,69.76
2019-05-01T20:34:59.503Z,70.09
2019-05-01T20:39:01.894Z,70.11
2019-05-01T20:43:07.161Z,70.51
2019-05-01T20:47:09.295Z,70.87
2019-05-01T20:51:11.278Z,71.33
2019-05-01T20:55:13.722Z,71.54
2019-05-01T20:59:15.886Z,71.54
2019-05-01T21:03:18.255Z,71.79
2019-05-01T21:07:31.972Z,72.36
2019-05-01T21:11:36.354Z,72.67
2019-05-01T21:15:38.245Z,72.87
2019-05-01T21:19:40.586Z,73.00
2019-05-01T21:23:43.547Z,73.17
2019-05-01T21:27:47.396Z,73.74
2019-05-01T21:31:49.284Z,74.04
2019-05-01T21:35:53.243Z,73.90
2019-05-01T21:39:54.804Z,74.32
2019-05-01T21:43:56.707Z,74.50
2019-05-01T21:47:58.606Z,74.27
2019-05-01T21:52:00.508Z,74.14
2019-05-01T21:56:06.155Z,74.11
2019-05-01T22:00:09.274Z,74.01
2019-05-01T22:04:12.839Z,74.68
2019-05-01T22:08:14.768Z,74.36
2019-05-01T22:12:16.885Z,74.77
2019-05-01T22:16:26.424Z,74.98
2019-05-01T22:20:29.951Z,75.54
2019-05-01T22:24:34.740Z,75.48
2019-05-01T22:28:44.158Z,76.30
2019-05-01T22:32:53.669Z,76.62
2019-05-01T22:36:55.577Z,77.51
2019-05-01T22:41:06.057Z,78.29
2019-05-01T22:45:02.765Z,78.64
2019-05-01T22:49:05.449Z,79.12
2019-05-01T22:53:08.037Z,78.96
2019-05-01T22:57:11.044Z,79.14
2019-05-01T23:01:18.130Z,78.68
2019-05-01T23:05:18.653Z,78.72
2019-05-01T23:09:23.556Z,78.65
2019-05-01T23:13:25.912Z,78.50
2019-05-01T23:17:29.459Z,78.53
2019-05-01T23:21:31.364Z,78.96
2019-05-01T23:25:36.634Z,79.26
2019-05-01T23:29:36.867Z,79.51
2019-05-01T23:33:38.758Z,80.42
2019-05-01T23:37:40.669Z,80.06
2019-05-01T23:41:47.102Z,80.03
2019-05-01T23:45:46.174Z,80.12
2019-05-01T23:49:52.572Z,80.11
2019-05-01T23:53:51.781Z,80.26
2019-05-01T23:57:53.664Z,79.90
